sensor_id;sensor_type;location;lat;lon;timestamp;P1;durP1;ratioP1;P2;durP2;ratioP2
74344;SDS011;62776;50.518;6.732;2023-12-20T00:02:03;0.60;;;0.60;;
74344;SDS011;62776;50.518;6.732;2023-12-20T00:04:58;0.77;;;0.70;;
74344;SDS011;62776;50.518;6.732;2023-12-20T00:07:46;0.73;;;0.73;;
74344;SDS011;62776;50.518;6.732;2023-12-20T00:10:36;0.60;;;0.60;;
74344;SDS011;62776;50.518;6.732;2023-12-20T00:19:47;0.50;;;0.50;;
74344;SDS011;62776;50.518;6.732;2023-12-20T00:22:37;0.47;;;0.47;;
74344;SDS011;62776;50.518;6.732;2023-12-20T00:25:26;0.50;;;0.50;;
74344;SDS011;62776;50.518;6.732;2023-12-20T00:28:12;0.57;;;0.57;;
74344;SDS011;62776;50.518;6.732;2023-12-20T00:30:58;0.75;;;0.75;;
74344;SDS011;62776;50.518;6.732;2023-12-20T00:33:45;0.60;;;0.60;;
74344;SDS011;62776;50.518;6.732;2023-12-20T00:36:33;1.42;;;0.60;;
74344;SDS011;62776;50.518;6.732;2023-12-20T00:39:20;0.50;;;0.50;;
74344;SDS011;62776;50.518;6.732;2023-12-20T00:42:16;0.50;;;0.50;;
74344;SDS011;62776;50.518;6.732;2023-12-20T00:45:09;0.85;;;0.85;;
74344;SDS011;62776;50.518;6.732;2023-12-20T00:47:56;0.50;;;0.50;;
74344;SDS011;62776;50.518;6.732;2023-12-20T00:50:42;0.35;;;0.35;;
74344;SDS011;62776;50.518;6.732;2023-12-20T00:53:28;0.50;;;0.50;;
74344;SDS011;62776;50.518;6.732;2023-12-20T00:56:15;0.60;;;0.60;;
74344;SDS011;62776;50.518;6.732;2023-12-20T00:59:03;0.50;;;0.50;;
74344;SDS011;62776;50.518;6.732;2023-12-20T01:02:02;1.70;;;0.63;;
74344;SDS011;62776;50.518;6.732;2023-12-20T01:04:49;0.45;;;0.45;;
74344;SDS011;62776;50.518;6.732;2023-12-20T01:07:40;0.60;;;0.60;;
74344;SDS011;62776;50.518;6.732;2023-12-20T01:14:37;1.10;;;1.10;;
74344;SDS011;62776;50.518;6.732;2023-12-20T01:17:29;1.30;;;1.20;;
74344;SDS011;62776;50.518;6.732;2023-12-20T01:20:19;1.48;;;1.38;;
74344;SDS011;62776;50.518;6.732;2023-12-20T01:23:07;1.95;;;1.85;;
74344;SDS011;62776;50.518;6.732;2023-12-20T01:26:04;1.90;;;1.80;;
74344;SDS011;62776;50.518;6.732;2023-12-20T01:28:51;2.00;;;1.90;;
74344;SDS011;62776;50.518;6.732;2023-12-20T01:31:52;1.80;;;1.70;;
74344;SDS011;62776;50.518;6.732;2023-12-20T01:34:41;2.40;;;2.20;;
74344;SDS011;62776;50.518;6.732;2023-12-20T01:37:28;2.60;;;2.40;;
74344;SDS011;62776;50.518;6.732;2023-12-20T01:40:14;2.90;;;2.70;;
74344;SDS011;62776;50.518;6.732;2023-12-20T01:43:08;2.85;;;2.65;;
74344;SDS011;62776;50.518;6.732;2023-12-20T01:45:57;3.15;;;2.95;;
74344;SDS011;62776;50.518;6.732;2023-12-20T01:48:44;3.22;;;3.00;;
74344;SDS011;62776;50.518;6.732;2023-12-20T01:51:33;2.58;;;2.38;;
74344;SDS011;62776;50.518;6.732;2023-12-20T01:54:22;2.60;;;2.40;;
74344;SDS011;62776;50.518;6.732;2023-12-20T01:57:09;2.42;;;2.28;;
74344;SDS011;62776;50.518;6.732;2023-12-20T01:59:56;2.63;;;2.42;;
74344;SDS011;62776;50.518;6.732;2023-12-20T02:02:43;1.80;;;1.70;;
74344;SDS011;62776;50.518;6.732;2023-12-20T02:05:28;4.38;;;2.10;;
74344;SDS011;62776;50.518;6.732;2023-12-20T02:08:15;2.28;;;2.03;;
74344;SDS011;62776;50.518;6.732;2023-12-20T02:11:14;3.65;;;2.47;;
74344;SDS011;62776;50.518;6.732;2023-12-20T02:14:01;3.65;;;2.03;;
74344;SDS011;62776;50.518;6.732;2023-12-20T02:16:51;2.55;;;2.10;;
74344;SDS011;62776;50.518;6.732;2023-12-20T02:19:37;2.20;;;1.70;;
74344;SDS011;62776;50.518;6.732;2023-12-20T02:22:34;3.20;;;2.03;;
74344;SDS011;62776;50.518;6.732;2023-12-20T02:25:23;3.90;;;1.95;;
74344;SDS011;62776;50.518;6.732;2023-12-20T02:28:10;4.45;;;1.58;;
74344;SDS011;62776;50.518;6.732;2023-12-20T02:30:56;2.80;;;1.55;;
74344;SDS011;62776;50.518;6.732;2023-12-20T02:33:43;2.60;;;1.70;;
74344;SDS011;62776;50.518;6.732;2023-12-20T02:36:29;1.83;;;1.70;;
74344;SDS011;62776;50.518;6.732;2023-12-20T02:39:21;2.57;;;1.77;;
74344;SDS011;62776;50.518;6.732;2023-12-20T02:49:10;3.40;;;1.92;;
74344;SDS011;62776;50.518;6.732;2023-12-20T02:52:13;2.50;;;1.83;;
74344;SDS011;62776;50.518;6.732;2023-12-20T02:55:05;4.80;;;1.92;;
74344;SDS011;62776;50.518;6.732;2023-12-20T02:57:51;2.03;;;1.50;;
74344;SDS011;62776;50.518;6.732;2023-12-20T03:00:43;5.75;;;1.80;;
74344;SDS011;62776;50.518;6.732;2023-12-20T03:03:32;2.10;;;1.90;;
74344;SDS011;62776;50.518;6.732;2023-12-20T03:06:26;4.90;;;1.92;;
74344;SDS011;62776;50.518;6.732;2023-12-20T03:09:12;3.35;;;1.98;;
74344;SDS011;62776;50.518;6.732;2023-12-20T03:11:58;3.00;;;1.65;;
74344;SDS011;62776;50.518;6.732;2023-12-20T03:14:45;3.92;;;2.00;;
74344;SDS011;62776;50.518;6.732;2023-12-20T03:17:42;3.72;;;1.45;;
74344;SDS011;62776;50.518;6.732;2023-12-20T03:20:29;3.40;;;1.50;;
74344;SDS011;62776;50.518;6.732;2023-12-20T03:23:20;4.18;;;1.70;;
74344;SDS011;62776;50.518;6.732;2023-12-20T03:26:09;2.30;;;1.38;;
74344;SDS011;62776;50.518;6.732;2023-12-20T03:28:58;2.40;;;1.33;;
74344;SDS011;62776;50.518;6.732;2023-12-20T03:35:11;2.55;;;1.90;;
74344;SDS011;62776;50.518;6.732;2023-12-20T03:37:58;2.83;;;1.67;;
74344;SDS011;62776;50.518;6.732;2023-12-20T03:40:45;3.80;;;1.73;;
74344;SDS011;62776;50.518;6.732;2023-12-20T03:43:32;3.20;;;1.80;;
74344;SDS011;62776;50.518;6.732;2023-12-20T03:46:20;1.77;;;1.40;;
74344;SDS011;62776;50.518;6.732;2023-12-20T03:49:19;1.58;;;1.42;;
74344;SDS011;62776;50.518;6.732;2023-12-20T03:52:06;2.88;;;1.73;;
74344;SDS011;62776;50.518;6.732;2023-12-20T03:54:54;2.25;;;1.83;;
74344;SDS011;62776;50.518;6.732;2023-12-20T03:57:41;2.75;;;1.42;;
74344;SDS011;62776;50.518;6.732;2023-12-20T04:00:27;2.58;;;1.70;;
74344;SDS011;62776;50.518;6.732;2023-12-20T04:03:13;2.60;;;1.55;;
74344;SDS011;62776;50.518;6.732;2023-12-20T04:06:00;3.25;;;1.42;;
74344;SDS011;62776;50.518;6.732;2023-12-20T04:08:54;2.10;;;1.33;;
74344;SDS011;62776;50.518;6.732;2023-12-20T04:12:02;3.72;;;1.88;;
74344;SDS011;62776;50.518;6.732;2023-12-20T04:14:50;3.35;;;1.50;;
74344;SDS011;62776;50.518;6.732;2023-12-20T04:17:36;6.38;;;2.30;;
74344;SDS011;62776;50.518;6.732;2023-12-20T04:20:22;3.13;;;1.70;;
74344;SDS011;62776;50.518;6.732;2023-12-20T04:23:09;5.40;;;1.80;;
74344;SDS011;62776;50.518;6.732;2023-12-20T04:25:58;4.32;;;1.80;;
74344;SDS011;62776;50.518;6.732;2023-12-20T04:28:45;5.55;;;2.00;;
74344;SDS011;62776;50.518;6.732;2023-12-20T04:31:33;3.50;;;1.60;;
74344;SDS011;62776;50.518;6.732;2023-12-20T04:34:22;2.00;;;1.50;;
74344;SDS011;62776;50.518;6.732;2023-12-20T04:37:09;3.30;;;1.70;;
74344;SDS011;62776;50.518;6.732;2023-12-20T04:39:58;3.15;;;1.88;;
74344;SDS011;62776;50.518;6.732;2023-12-20T04:42:45;2.58;;;1.63;;
74344;SDS011;62776;50.518;6.732;2023-12-20T04:45:33;5.50;;;2.20;;
74344;SDS011;62776;50.518;6.732;2023-12-20T04:48:23;3.80;;;2.03;;
74344;SDS011;62776;50.518;6.732;2023-12-20T04:51:09;2.80;;;2.10;;
74344;SDS011;62776;50.518;6.732;2023-12-20T04:53:57;5.80;;;2.72;;
74344;SDS011;62776;50.518;6.732;2023-12-20T04:56:43;2.78;;;1.98;;
74344;SDS011;62776;50.518;6.732;2023-12-20T04:59:29;5.10;;;2.30;;
74344;SDS011;62776;50.518;6.732;2023-12-20T05:02:20;5.35;;;2.00;;
74344;SDS011;62776;50.518;6.732;2023-12-20T05:05:07;3.53;;;2.08;;
74344;SDS011;62776;50.518;6.732;2023-12-20T05:08:03;4.90;;;2.58;;
74344;SDS011;62776;50.518;6.732;2023-12-20T05:10:50;3.80;;;2.08;;
74344;SDS011;62776;50.518;6.732;2023-12-20T05:13:39;3.33;;;1.92;;
74344;SDS011;62776;50.518;6.732;2023-12-20T05:16:35;6.55;;;2.55;;
74344;SDS011;62776;50.518;6.732;2023-12-20T05:19:48;5.30;;;2.42;;
74344;SDS011;62776;50.518;6.732;2023-12-20T05:22:37;6.03;;;2.67;;
74344;SDS011;62776;50.518;6.732;2023-12-20T05:25:26;2.65;;;2.25;;
74344;SDS011;62776;50.518;6.732;2023-12-20T05:28:15;8.48;;;2.58;;
74344;SDS011;62776;50.518;6.732;2023-12-20T05:31:04;2.45;;;1.70;;
74344;SDS011;62776;50.518;6.732;2023-12-20T05:33:54;3.10;;;2.00;;
74344;SDS011;62776;50.518;6.732;2023-12-20T05:36:45;4.28;;;2.63;;
74344;SDS011;62776;50.518;6.732;2023-12-20T05:39:31;2.65;;;1.77;;
74344;SDS011;62776;50.518;6.732;2023-12-20T05:42:20;6.35;;;2.42;;
74344;SDS011;62776;50.518;6.732;2023-12-20T05:45:06;3.30;;;1.95;;
74344;SDS011;62776;50.518;6.732;2023-12-20T05:47:56;3.67;;;2.15;;
74344;SDS011;62776;50.518;6.732;2023-12-20T05:50:50;4.15;;;2.17;;
74344;SDS011;62776;50.518;6.732;2023-12-20T05:53:36;3.83;;;2.08;;
74344;SDS011;62776;50.518;6.732;2023-12-20T05:56:23;4.68;;;1.88;;
74344;SDS011;62776;50.518;6.732;2023-12-20T05:59:09;6.35;;;2.60;;
74344;SDS011;62776;50.518;6.732;2023-12-20T06:02:13;3.17;;;1.92;;
74344;SDS011;62776;50.518;6.732;2023-12-20T06:05:06;3.50;;;2.33;;
74344;SDS011;62776;50.518;6.732;2023-12-20T06:07:57;4.82;;;2.13;;
74344;SDS011;62776;50.518;6.732;2023-12-20T06:10:50;3.53;;;2.17;;
74344;SDS011;62776;50.518;6.732;2023-12-20T06:13:36;2.97;;;1.38;;
74344;SDS011;62776;50.518;6.732;2023-12-20T06:16:27;5.05;;;2.08;;
74344;SDS011;62776;50.518;6.732;2023-12-20T06:19:14;4.85;;;2.50;;
74344;SDS011;62776;50.518;6.732;2023-12-20T06:22:00;4.25;;;2.88;;
74344;SDS011;62776;50.518;6.732;2023-12-20T06:24:47;2.42;;;1.73;;
74344;SDS011;62776;50.518;6.732;2023-12-20T06:27:33;3.75;;;1.83;;
74344;SDS011;62776;50.518;6.732;2023-12-20T06:30:30;5.45;;;1.83;;
74344;SDS011;62776;50.518;6.732;2023-12-20T06:33:17;3.60;;;2.17;;
74344;SDS011;62776;50.518;6.732;2023-12-20T06:36:07;4.68;;;1.90;;
74344;SDS011;62776;50.518;6.732;2023-12-20T06:38:56;4.28;;;2.00;;
74344;SDS011;62776;50.518;6.732;2023-12-20T06:41:43;2.72;;;1.75;;
74344;SDS011;62776;50.518;6.732;2023-12-20T06:44:29;2.33;;;1.65;;
74344;SDS011;62776;50.518;6.732;2023-12-20T06:50:08;2.97;;;1.85;;
74344;SDS011;62776;50.518;6.732;2023-12-20T06:52:54;2.97;;;1.80;;
74344;SDS011;62776;50.518;6.732;2023-12-20T06:55:41;2.17;;;1.50;;
74344;SDS011;62776;50.518;6.732;2023-12-20T06:58:27;3.05;;;1.75;;
74344;SDS011;62776;50.518;6.732;2023-12-20T07:01:24;3.33;;;1.70;;
74344;SDS011;62776;50.518;6.732;2023-12-20T07:04:10;3.63;;;1.65;;
74344;SDS011;62776;50.518;6.732;2023-12-20T07:06:59;5.85;;;2.58;;
74344;SDS011;62776;50.518;6.732;2023-12-20T07:10:07;4.22;;;1.92;;
74344;SDS011;62776;50.518;6.732;2023-12-20T07:12:59;4.10;;;2.13;;
74344;SDS011;62776;50.518;6.732;2023-12-20T07:15:49;3.70;;;1.80;;
74344;SDS011;62776;50.518;6.732;2023-12-20T07:18:36;4.60;;;2.28;;
74344;SDS011;62776;50.518;6.732;2023-12-20T07:21:22;3.30;;;1.80;;
74344;SDS011;62776;50.518;6.732;2023-12-20T07:24:19;3.15;;;1.98;;
74344;SDS011;62776;50.518;6.732;2023-12-20T07:27:05;3.50;;;2.10;;
74344;SDS011;62776;50.518;6.732;2023-12-20T07:29:52;8.32;;;2.90;;
74344;SDS011;62776;50.518;6.732;2023-12-20T07:32:41;4.55;;;1.90;;
74344;SDS011;62776;50.518;6.732;2023-12-20T07:35:37;4.32;;;2.13;;
74344;SDS011;62776;50.518;6.732;2023-12-20T07:38:24;4.53;;;2.30;;
74344;SDS011;62776;50.518;6.732;2023-12-20T07:41:16;4.00;;;1.98;;
74344;SDS011;62776;50.518;6.732;2023-12-20T07:44:06;3.65;;;1.92;;
74344;SDS011;62776;50.518;6.732;2023-12-20T07:46:54;5.05;;;1.52;;
74344;SDS011;62776;50.518;6.732;2023-12-20T07:49:40;2.55;;;1.92;;
74344;SDS011;62776;50.518;6.732;2023-12-20T07:52:30;3.75;;;2.13;;
74344;SDS011;62776;50.518;6.732;2023-12-20T07:55:16;5.60;;;1.92;;
74344;SDS011;62776;50.518;6.732;2023-12-20T07:58:05;3.42;;;1.95;;
74344;SDS011;62776;50.518;6.732;2023-12-20T08:00:55;5.25;;;2.25;;
74344;SDS011;62776;50.518;6.732;2023-12-20T08:03:48;3.70;;;1.98;;
74344;SDS011;62776;50.518;6.732;2023-12-20T08:06:45;4.40;;;1.73;;
74344;SDS011;62776;50.518;6.732;2023-12-20T08:09:32;3.35;;;1.65;;
74344;SDS011;62776;50.518;6.732;2023-12-20T08:12:21;3.40;;;1.55;;
74344;SDS011;62776;50.518;6.732;2023-12-20T08:15:08;3.25;;;1.80;;
74344;SDS011;62776;50.518;6.732;2023-12-20T08:17:55;4.18;;;2.28;;
74344;SDS011;62776;50.518;6.732;2023-12-20T08:20:45;3.15;;;1.80;;
74344;SDS011;62776;50.518;6.732;2023-12-20T08:23:35;2.42;;;1.50;;
74344;SDS011;62776;50.518;6.732;2023-12-20T08:26:25;4.05;;;2.08;;
74344;SDS011;62776;50.518;6.732;2023-12-20T08:29:14;3.63;;;1.60;;
74344;SDS011;62776;50.518;6.732;2023-12-20T08:32:00;3.40;;;2.10;;
74344;SDS011;62776;50.518;6.732;2023-12-20T08:34:50;4.35;;;2.17;;
74344;SDS011;62776;50.518;6.732;2023-12-20T08:37:39;3.28;;;2.08;;
74344;SDS011;62776;50.518;6.732;2023-12-20T08:40:26;3.05;;;1.88;;
74344;SDS011;62776;50.518;6.732;2023-12-20T08:43:14;3.58;;;1.60;;
74344;SDS011;62776;50.518;6.732;2023-12-20T08:46:03;3.03;;;2.00;;
74344;SDS011;62776;50.518;6.732;2023-12-20T08:48:54;6.43;;;2.05;;
74344;SDS011;62776;50.518;6.732;2023-12-20T08:51:46;3.25;;;2.05;;
74344;SDS011;62776;50.518;6.732;2023-12-20T08:54:33;3.13;;;1.65;;
74344;SDS011;62776;50.518;6.732;2023-12-20T08:57:19;5.57;;;2.88;;
74344;SDS011;62776;50.518;6.732;2023-12-20T09:00:10;2.67;;;1.67;;
74344;SDS011;62776;50.518;6.732;2023-12-20T09:02:57;4.35;;;2.08;;
74344;SDS011;62776;50.518;6.732;2023-12-20T09:05:44;3.47;;;2.08;;
74344;SDS011;62776;50.518;6.732;2023-12-20T09:08:30;2.40;;;1.90;;
74344;SDS011;62776;50.518;6.732;2023-12-20T09:11:25;2.67;;;1.60;;
74344;SDS011;62776;50.518;6.732;2023-12-20T09:14:12;3.35;;;2.38;;
74344;SDS011;62776;50.518;6.732;2023-12-20T09:17:03;3.53;;;2.22;;
74344;SDS011;62776;50.518;6.732;2023-12-20T09:19:50;4.15;;;1.77;;
74344;SDS011;62776;50.518;6.732;2023-12-20T09:22:39;2.35;;;1.90;;
74344;SDS011;62776;50.518;6.732;2023-12-20T09:25:27;3.90;;;1.88;;
74344;SDS011;62776;50.518;6.732;2023-12-20T09:28:16;3.13;;;1.60;;
74344;SDS011;62776;50.518;6.732;2023-12-20T09:31:04;3.95;;;1.83;;
74344;SDS011;62776;50.518;6.732;2023-12-20T09:33:54;1.80;;;1.45;;
74344;SDS011;62776;50.518;6.732;2023-12-20T09:36:40;1.25;;;0.98;;
74344;SDS011;62776;50.518;6.732;2023-12-20T09:39:31;3.03;;;1.65;;
74344;SDS011;62776;50.518;6.732;2023-12-20T09:42:33;2.63;;;1.67;;
74344;SDS011;62776;50.518;6.732;2023-12-20T09:45:27;2.22;;;1.10;;
74344;SDS011;62776;50.518;6.732;2023-12-20T09:48:19;3.17;;;1.85;;
74344;SDS011;62776;50.518;6.732;2023-12-20T09:51:05;3.63;;;1.55;;
74344;SDS011;62776;50.518;6.732;2023-12-20T09:53:54;2.80;;;1.65;;
74344;SDS011;62776;50.518;6.732;2023-12-20T09:56:43;2.25;;;1.60;;
74344;SDS011;62776;50.518;6.732;2023-12-20T09:59:29;2.25;;;1.88;;
74344;SDS011;62776;50.518;6.732;2023-12-20T10:02:16;3.60;;;1.38;;
74344;SDS011;62776;50.518;6.732;2023-12-20T10:05:07;2.78;;;1.52;;
74344;SDS011;62776;50.518;6.732;2023-12-20T10:08:00;3.35;;;1.80;;
74344;SDS011;62776;50.518;6.732;2023-12-20T10:10:49;2.63;;;1.52;;
74344;SDS011;62776;50.518;6.732;2023-12-20T10:13:40;4.30;;;2.40;;
74344;SDS011;62776;50.518;6.732;2023-12-20T10:16:27;3.38;;;1.70;;
74344;SDS011;62776;50.518;6.732;2023-12-20T10:19:16;2.75;;;1.88;;
74344;SDS011;62776;50.518;6.732;2023-12-20T10:22:06;3.53;;;1.63;;
74344;SDS011;62776;50.518;6.732;2023-12-20T10:24:52;2.08;;;1.30;;
74344;SDS011;62776;50.518;6.732;2023-12-20T10:27:40;2.28;;;1.52;;
74344;SDS011;62776;50.518;6.732;2023-12-20T10:30:28;3.25;;;1.70;;
74344;SDS011;62776;50.518;6.732;2023-12-20T10:33:22;2.65;;;1.73;;
74344;SDS011;62776;50.518;6.732;2023-12-20T10:36:10;2.60;;;1.58;;
74344;SDS011;62776;50.518;6.732;2023-12-20T10:38:58;2.20;;;1.48;;
74344;SDS011;62776;50.518;6.732;2023-12-20T10:41:45;3.90;;;1.65;;
74344;SDS011;62776;50.518;6.732;2023-12-20T10:44:33;4.45;;;2.20;;
74344;SDS011;62776;50.518;6.732;2023-12-20T10:47:24;2.78;;;1.50;;
74344;SDS011;62776;50.518;6.732;2023-12-20T10:50:14;4.03;;;1.98;;
74344;SDS011;62776;50.518;6.732;2023-12-20T10:53:01;3.78;;;2.03;;
74344;SDS011;62776;50.518;6.732;2023-12-20T10:58:41;4.00;;;2.22;;
74344;SDS011;62776;50.518;6.732;2023-12-20T11:01:31;2.83;;;1.83;;
74344;SDS011;62776;50.518;6.732;2023-12-20T11:04:21;4.65;;;2.00;;
74344;SDS011;62776;50.518;6.732;2023-12-20T11:07:17;3.20;;;2.03;;
74344;SDS011;62776;50.518;6.732;2023-12-20T11:10:26;4.18;;;2.00;;
74344;SDS011;62776;50.518;6.732;2023-12-20T11:13:28;3.15;;;1.80;;
74344;SDS011;62776;50.518;6.732;2023-12-20T11:16:32;2.00;;;1.63;;
74344;SDS011;62776;50.518;6.732;2023-12-20T11:19:21;5.13;;;3.63;;
74344;SDS011;62776;50.518;6.732;2023-12-20T11:22:10;2.03;;;1.80;;
74344;SDS011;62776;50.518;6.732;2023-12-20T11:25:04;2.95;;;1.80;;
74344;SDS011;62776;50.518;6.732;2023-12-20T11:28:10;2.65;;;1.80;;
74344;SDS011;62776;50.518;6.732;2023-12-20T11:31:02;3.60;;;2.08;;
74344;SDS011;62776;50.518;6.732;2023-12-20T11:33:51;3.17;;;2.03;;
74344;SDS011;62776;50.518;6.732;2023-12-20T11:37:00;4.32;;;2.35;;
74344;SDS011;62776;50.518;6.732;2023-12-20T11:39:55;3.50;;;2.05;;
74344;SDS011;62776;50.518;6.732;2023-12-20T11:42:49;3.00;;;2.15;;
74344;SDS011;62776;50.518;6.732;2023-12-20T11:45:39;3.10;;;2.08;;
74344;SDS011;62776;50.518;6.732;2023-12-20T11:48:45;3.83;;;2.33;;
74344;SDS011;62776;50.518;6.732;2023-12-20T11:51:33;2.38;;;1.70;;
74344;SDS011;62776;50.518;6.732;2023-12-20T11:54:22;4.18;;;2.40;;
74344;SDS011;62776;50.518;6.732;2023-12-20T11:57:11;3.00;;;1.83;;
74344;SDS011;62776;50.518;6.732;2023-12-20T12:00:01;2.75;;;1.75;;
74344;SDS011;62776;50.518;6.732;2023-12-20T12:02:55;3.42;;;2.50;;
74344;SDS011;62776;50.518;6.732;2023-12-20T12:05:35;5.38;;;2.20;;
74344;SDS011;62776;50.518;6.732;2023-12-20T12:08:21;2.88;;;2.05;;
74344;SDS011;62776;50.518;6.732;2023-12-20T12:11:10;2.78;;;2.17;;
74344;SDS011;62776;50.518;6.732;2023-12-20T12:13:56;2.10;;;1.90;;
74344;SDS011;62776;50.518;6.732;2023-12-20T12:16:42;7.20;;;5.70;;
74344;SDS011;62776;50.518;6.732;2023-12-20T12:19:29;4.97;;;2.45;;
74344;SDS011;62776;50.518;6.732;2023-12-20T12:22:20;2.80;;;2.22;;
74344;SDS011;62776;50.518;6.732;2023-12-20T12:25:12;3.88;;;2.10;;
74344;SDS011;62776;50.518;6.732;2023-12-20T12:27:59;3.45;;;1.45;;
74344;SDS011;62776;50.518;6.732;2023-12-20T12:30:58;2.75;;;2.17;;
74344;SDS011;62776;50.518;6.732;2023-12-20T12:33:45;3.15;;;1.88;;
74344;SDS011;62776;50.518;6.732;2023-12-20T12:36:31;3.45;;;1.85;;
74344;SDS011;62776;50.518;6.732;2023-12-20T12:39:18;3.30;;;2.40;;
74344;SDS011;62776;50.518;6.732;2023-12-20T12:42:04;3.47;;;1.70;;
74344;SDS011;62776;50.518;6.732;2023-12-20T12:44:51;3.78;;;1.85;;
74344;SDS011;62776;50.518;6.732;2023-12-20T12:47:40;3.42;;;2.17;;
74344;SDS011;62776;50.518;6.732;2023-12-20T12:50:26;3.55;;;2.17;;
74344;SDS011;62776;50.518;6.732;2023-12-20T12:53:13;3.55;;;2.10;;
74344;SDS011;62776;50.518;6.732;2023-12-20T12:56:00;3.00;;;1.85;;
74344;SDS011;62776;50.518;6.732;2023-12-20T12:58:46;2.55;;;1.60;;
74344;SDS011;62776;50.518;6.732;2023-12-20T13:01:32;5.28;;;2.17;;
74344;SDS011;62776;50.518;6.732;2023-12-20T13:04:21;2.08;;;1.60;;
74344;SDS011;62776;50.518;6.732;2023-12-20T13:07:10;3.00;;;1.65;;
74344;SDS011;62776;50.518;6.732;2023-12-20T13:09:57;3.88;;;2.22;;
74344;SDS011;62776;50.518;6.732;2023-12-20T13:12:43;4.20;;;1.52;;
74344;SDS011;62776;50.518;6.732;2023-12-20T13:15:30;3.03;;;2.03;;
74344;SDS011;62776;50.518;6.732;2023-12-20T13:18:18;2.03;;;1.30;;
74344;SDS011;62776;50.518;6.732;2023-12-20T13:21:04;1.20;;;1.10;;
74344;SDS011;62776;50.518;6.732;2023-12-20T13:23:50;1.17;;;1.08;;
74344;SDS011;62776;50.518;6.732;2023-12-20T13:26:38;2.20;;;1.27;;
74344;SDS011;62776;50.518;6.732;2023-12-20T13:29:25;1.90;;;1.17;;
74344;SDS011;62776;50.518;6.732;2023-12-20T13:32:12;1.20;;;1.10;;
74344;SDS011;62776;50.518;6.732;2023-12-20T13:35:00;1.95;;;1.45;;
74344;SDS011;62776;50.518;6.732;2023-12-20T13:37:48;1.42;;;0.90;;
74344;SDS011;62776;50.518;6.732;2023-12-20T13:40:36;2.15;;;1.17;;
74344;SDS011;62776;50.518;6.732;2023-12-20T13:43:22;2.30;;;1.35;;
74344;SDS011;62776;50.518;6.732;2023-12-20T13:46:09;0.82;;;0.82;;
74344;SDS011;62776;50.518;6.732;2023-12-20T13:48:55;1.08;;;0.95;;
74344;SDS011;62776;50.518;6.732;2023-12-20T13:51:42;1.83;;;1.10;;
74344;SDS011;62776;50.518;6.732;2023-12-20T13:54:28;0.90;;;0.90;;
74344;SDS011;62776;50.518;6.732;2023-12-20T13:57:15;0.88;;;0.82;;
74344;SDS011;62776;50.518;6.732;2023-12-20T14:00:01;0.70;;;0.70;;
74344;SDS011;62776;50.518;6.732;2023-12-20T14:02:51;0.80;;;0.80;;
74344;SDS011;62776;50.518;6.732;2023-12-20T14:06:13;0.90;;;0.90;;
74344;SDS011;62776;50.518;6.732;2023-12-20T14:09:00;1.13;;;0.80;;
74344;SDS011;62776;50.518;6.732;2023-12-20T14:11:46;1.17;;;0.88;;
74344;SDS011;62776;50.518;6.732;2023-12-20T14:14:32;0.98;;;0.90;;
74344;SDS011;62776;50.518;6.732;2023-12-20T14:17:19;1.23;;;1.13;;
74344;SDS011;62776;50.518;6.732;2023-12-20T14:20:08;0.68;;;0.68;;
74344;SDS011;62776;50.518;6.732;2023-12-20T14:22:58;0.93;;;0.90;;
74344;SDS011;62776;50.518;6.732;2023-12-20T14:25:44;0.90;;;0.80;;
74344;SDS011;62776;50.518;6.732;2023-12-20T14:28:30;1.88;;;0.90;;
74344;SDS011;62776;50.518;6.732;2023-12-20T14:31:17;0.90;;;0.90;;
74344;SDS011;62776;50.518;6.732;2023-12-20T14:34:04;1.73;;;0.95;;
74344;SDS011;62776;50.518;6.732;2023-12-20T14:36:50;0.90;;;0.90;;
74344;SDS011;62776;50.518;6.732;2023-12-20T14:39:37;0.80;;;0.75;;
74344;SDS011;62776;50.518;6.732;2023-12-20T14:42:26;1.85;;;1.27;;
74344;SDS011;62776;50.518;6.732;2023-12-20T14:45:15;1.08;;;1.00;;
74344;SDS011;62776;50.518;6.732;2023-12-20T14:48:02;1.40;;;1.05;;
74344;SDS011;62776;50.518;6.732;2023-12-20T14:50:48;1.13;;;1.00;;
74344;SDS011;62776;50.518;6.732;2023-12-20T14:53:38;0.85;;;0.82;;
74344;SDS011;62776;50.518;6.732;2023-12-20T14:56:25;1.00;;;0.60;;
74344;SDS011;62776;50.518;6.732;2023-12-20T14:59:11;1.20;;;1.10;;
74344;SDS011;62776;50.518;6.732;2023-12-20T15:01:57;2.03;;;1.02;;
74344;SDS011;62776;50.518;6.732;2023-12-20T15:04:44;2.10;;;0.88;;
74344;SDS011;62776;50.518;6.732;2023-12-20T15:07:30;1.73;;;0.90;;
74344;SDS011;62776;50.518;6.732;2023-12-20T15:10:17;1.00;;;0.90;;
74344;SDS011;62776;50.518;6.732;2023-12-20T15:13:03;3.33;;;1.60;;
74344;SDS011;62776;50.518;6.732;2023-12-20T15:15:51;2.30;;;1.60;;
74344;SDS011;62776;50.518;6.732;2023-12-20T15:18:37;1.90;;;1.40;;
74344;SDS011;62776;50.518;6.732;2023-12-20T15:21:34;1.33;;;0.90;;
74344;SDS011;62776;50.518;6.732;2023-12-20T15:24:25;1.65;;;1.23;;
74344;SDS011;62776;50.518;6.732;2023-12-20T15:27:13;2.78;;;1.10;;
74344;SDS011;62776;50.518;6.732;2023-12-20T15:30:00;2.15;;;0.90;;
74344;SDS011;62776;50.518;6.732;2023-12-20T15:32:46;1.42;;;0.70;;
74344;SDS011;62776;50.518;6.732;2023-12-20T15:35:32;0.80;;;0.70;;
74344;SDS011;62776;50.518;6.732;2023-12-20T15:38:19;0.88;;;0.65;;
74344;SDS011;62776;50.518;6.732;2023-12-20T15:41:05;2.13;;;1.13;;
74344;SDS011;62776;50.518;6.732;2023-12-20T15:43:52;0.75;;;0.73;;
74344;SDS011;62776;50.518;6.732;2023-12-20T15:46:38;0.90;;;0.90;;
74344;SDS011;62776;50.518;6.732;2023-12-20T15:49:27;0.73;;;0.60;;
74344;SDS011;62776;50.518;6.732;2023-12-20T15:52:14;0.70;;;0.70;;
74344;SDS011;62776;50.518;6.732;2023-12-20T15:55:03;1.35;;;1.10;;
74344;SDS011;62776;50.518;6.732;2023-12-20T15:57:50;0.85;;;0.85;;
74344;SDS011;62776;50.518;6.732;2023-12-20T16:00:36;1.33;;;0.80;;
74344;SDS011;62776;50.518;6.732;2023-12-20T16:03:23;0.98;;;0.98;;
74344;SDS011;62776;50.518;6.732;2023-12-20T16:06:09;1.02;;;0.90;;
74344;SDS011;62776;50.518;6.732;2023-12-20T16:08:57;1.70;;;1.30;;
74344;SDS011;62776;50.518;6.732;2023-12-20T16:11:44;1.10;;;1.00;;
74344;SDS011;62776;50.518;6.732;2023-12-20T16:14:30;0.98;;;0.80;;
74344;SDS011;62776;50.518;6.732;2023-12-20T16:17:16;0.88;;;0.85;;
74344;SDS011;62776;50.518;6.732;2023-12-20T16:20:02;1.50;;;1.23;;
74344;SDS011;62776;50.518;6.732;2023-12-20T16:22:49;1.25;;;1.13;;
74344;SDS011;62776;50.518;6.732;2023-12-20T16:25:38;1.40;;;0.90;;
74344;SDS011;62776;50.518;6.732;2023-12-20T16:28:25;0.90;;;0.90;;
74344;SDS011;62776;50.518;6.732;2023-12-20T16:31:33;1.10;;;0.90;;
74344;SDS011;62776;50.518;6.732;2023-12-20T16:34:21;2.33;;;1.10;;
74344;SDS011;62776;50.518;6.732;2023-12-20T16:37:07;1.75;;;1.23;;
74344;SDS011;62776;50.518;6.732;2023-12-20T16:39:54;1.38;;;1.15;;
74344;SDS011;62776;50.518;6.732;2023-12-20T16:42:40;1.25;;;1.10;;
74344;SDS011;62776;50.518;6.732;2023-12-20T16:45:26;2.45;;;1.77;;
74344;SDS011;62776;50.518;6.732;2023-12-20T16:48:13;1.13;;;1.00;;
74344;SDS011;62776;50.518;6.732;2023-12-20T16:50:59;1.10;;;1.02;;
74344;SDS011;62776;50.518;6.732;2023-12-20T16:53:45;2.17;;;1.42;;
74344;SDS011;62776;50.518;6.732;2023-12-20T16:56:39;1.40;;;1.20;;
74344;SDS011;62776;50.518;6.732;2023-12-20T16:59:35;2.80;;;1.55;;
74344;SDS011;62776;50.518;6.732;2023-12-20T17:02:22;1.75;;;1.33;;
74344;SDS011;62776;50.518;6.732;2023-12-20T17:05:09;2.33;;;1.30;;
74344;SDS011;62776;50.518;6.732;2023-12-20T17:07:55;1.98;;;1.38;;
74344;SDS011;62776;50.518;6.732;2023-12-20T17:10:42;1.65;;;1.55;;
74344;SDS011;62776;50.518;6.732;2023-12-20T17:13:28;1.83;;;1.30;;
74344;SDS011;62776;50.518;6.732;2023-12-20T17:16:18;3.63;;;1.27;;
74344;SDS011;62776;50.518;6.732;2023-12-20T17:19:05;1.52;;;1.13;;
74344;SDS011;62776;50.518;6.732;2023-12-20T17:21:51;2.95;;;1.60;;
74344;SDS011;62776;50.518;6.732;2023-12-20T17:24:37;2.33;;;1.70;;
74344;SDS011;62776;50.518;6.732;2023-12-20T17:27:24;1.60;;;1.20;;